El Vigia, Venezuela
Current Conditions -  °F | °C
As of 11:00 PM on Sunday 19 Oct 2014 (Local Time) from SVVG Reporting Station
Thunderstorm Thunderstorm  
Wind Chill: 79°   Ceiling: 2000
Heat Index: 83°   Visibility: 4mi
Dew Point: 79°   Wind: 6mph
Humidity: 100%   Direction: 310°NW
Pressure: 29.85"   Gusts: NA
Location:  8.63°N, 71.65°W
Report Text: SVVG 200300Z 31005KT 6000 TSDZ SCT017CB BKN020 26/26 Q1011
Loading
Personal Weather Stations






























Interactive Weather Map
Tropical Storm Tracking
New forecast layout! Learn more

10-Day Weather Forecast

Advertisements
Track Severe Weather on mobile